createdAt,value
2022-09-12T00:01:20.606Z,99.90
2022-09-12T00:03:49.071Z,99.90
2022-09-12T00:06:22.885Z,99.90
2022-09-12T00:08:53.096Z,99.90
2022-09-12T00:11:21.150Z,99.90
2022-09-12T00:13:49.190Z,99.90
2022-09-12T00:16:18.881Z,99.90
2022-09-12T00:18:47.728Z,99.90
2022-09-12T00:21:16.709Z,99.90
2022-09-12T00:23:45.228Z,99.90
2022-09-12T00:26:14.676Z,99.90
2022-09-12T00:28:43.233Z,99.90
2022-09-12T00:31:13.624Z,99.90
2022-09-12T00:33:43.839Z,99.90
2022-09-12T00:36:14.828Z,99.90
2022-09-12T00:38:43.237Z,99.90
2022-09-12T00:41:16.941Z,99.90
2022-09-12T00:43:47.791Z,99.90
2022-09-12T00:46:27.250Z,99.90
2022-09-12T00:48:59.437Z,99.90
2022-09-12T00:51:28.551Z,99.90
2022-09-12T00:53:59.424Z,99.90
2022-09-12T00:56:29.083Z,99.90
2022-09-12T00:59:00.736Z,99.90
2022-09-12T01:01:32.319Z,99.90
2022-09-12T01:04:01.695Z,99.90
2022-09-12T01:06:35.985Z,99.90
2022-09-12T01:09:05.187Z,99.90
2022-09-12T01:11:38.142Z,99.90
2022-09-12T01:14:06.420Z,99.90
2022-09-12T01:16:37.857Z,99.90
2022-09-12T01:19:23.874Z,99.90
2022-09-12T01:22:04.546Z,99.90
2022-09-12T01:24:49.994Z,99.90
2022-09-12T01:27:45.469Z,99.90
2022-09-12T01:30:45.162Z,99.90
2022-09-12T01:33:33.190Z,99.90
2022-09-12T01:36:19.347Z,99.90
2022-09-12T01:38:51.333Z,99.90
2022-09-12T01:41:27.572Z,99.90
2022-09-12T01:44:03.696Z,99.90
2022-09-12T01:46:37.071Z,99.90
2022-09-12T01:49:13.358Z,99.90
2022-09-12T01:51:45.075Z,99.90
2022-09-12T01:54:18.234Z,99.90
2022-09-12T01:56:50.048Z,99.90
2022-09-12T01:59:23.399Z,99.90
2022-09-12T02:01:57.436Z,99.90
2022-09-12T02:04:34.131Z,99.90
2022-09-12T02:07:07.988Z,99.90
2022-09-12T02:09:38.780Z,99.90
2022-09-12T02:12:11.443Z,99.90
2022-09-12T02:14:43.405Z,99.90
2022-09-12T02:17:15.876Z,99.90
2022-09-12T02:19:47.857Z,99.90
2022-09-12T02:22:19.276Z,99.90
2022-09-12T02:24:51.694Z,99.90
2022-09-12T02:27:23.516Z,99.90
2022-09-12T02:29:52.220Z,99.90
2022-09-12T02:32:29.611Z,99.90
2022-09-12T02:35:06.896Z,99.90
2022-09-12T02:37:51.227Z,99.90
2022-09-12T02:40:19.684Z,99.90
2022-09-12T02:42:47.784Z,99.90
2022-09-12T02:45:16.372Z,99.90
2022-09-12T02:47:49.981Z,99.90
2022-09-12T02:50:18.407Z,99.90
2022-09-12T02:52:47.444Z,99.90
2022-09-12T02:55:16.439Z,99.90
2022-09-12T02:57:44.697Z,99.90
2022-09-12T03:00:14.145Z,99.90
2022-09-12T03:03:08.982Z,99.90
2022-09-12T03:05:41.468Z,99.90
2022-09-12T03:08:37.838Z,99.90
2022-09-12T03:11:25.808Z,99.90
2022-09-12T03:14:06.733Z,99.90
2022-09-12T03:16:39.833Z,99.90
2022-09-12T03:19:20.077Z,99.90
2022-09-12T03:21:59.796Z,99.90
2022-09-12T03:24:33.538Z,99.90
2022-09-12T03:27:08.970Z,99.90
2022-09-12T03:29:38.420Z,99.90
2022-09-12T03:32:07.451Z,99.90
2022-09-12T03:34:36.885Z,99.90
2022-09-12T03:37:05.087Z,99.90
2022-09-12T03:39:33.338Z,99.90
2022-09-12T03:42:01.463Z,99.90
2022-09-12T03:44:29.666Z,99.90
2022-09-12T03:46:57.665Z,99.90
2022-09-12T03:49:25.667Z,99.90
2022-09-12T03:51:55.052Z,99.90
2022-09-12T03:54:23.210Z,99.90
2022-09-12T03:56:51.200Z,99.90
2022-09-12T03:59:19.217Z,99.90
2022-09-12T04:01:47.248Z,99.90
2022-09-12T04:04:15.322Z,99.90
2022-09-12T04:06:44.137Z,99.90
2022-09-12T04:09:13.515Z,99.90
2022-09-12T04:11:41.508Z,99.90
2022-09-12T04:14:09.512Z,99.90
2022-09-12T04:16:37.671Z,99.90
2022-09-12T04:19:05.837Z,99.90
2022-09-12T04:21:33.907Z,99.90
2022-09-12T04:24:02.272Z,99.90
2022-09-12T04:26:31.867Z,99.90
2022-09-12T04:29:00.186Z,99.90
2022-09-12T04:31:28.266Z,99.90
2022-09-12T04:33:57.125Z,99.90
2022-09-12T04:36:26.316Z,99.90
2022-09-12T04:38:54.770Z,99.90
2022-09-12T04:41:24.978Z,99.90
2022-09-12T04:43:58.209Z,99.90
2022-09-12T04:46:27.200Z,99.90
2022-09-12T04:48:57.044Z,99.90
2022-09-12T04:51:27.963Z,99.90
2022-09-12T04:53:58.172Z,99.90
2022-09-12T04:56:26.778Z,99.90
2022-09-12T04:58:58.651Z,99.90
2022-09-12T05:01:27.632Z,99.90
2022-09-12T05:03:56.588Z,99.90
2022-09-12T05:06:26.958Z,99.90
2022-09-12T05:08:55.982Z,99.90
2022-09-12T05:11:36.757Z,99.90
2022-09-12T05:14:15.847Z,99.90
2022-09-12T05:16:48.561Z,99.90
2022-09-12T05:19:17.548Z,99.90
2022-09-12T05:21:45.558Z,99.90
2022-09-12T05:24:13.726Z,99.90
2022-09-12T05:26:41.692Z,99.90
2022-09-12T05:29:09.748Z,99.90
2022-09-12T05:31:39.167Z,99.90
2022-09-12T05:34:09.094Z,99.90
2022-09-12T05:36:38.567Z,99.90
2022-09-12T05:39:06.527Z,99.90
2022-09-12T05:41:36.316Z,99.90
2022-09-12T05:44:06.534Z,99.90
2022-09-12T05:46:40.770Z,99.90
2022-09-12T05:49:11.296Z,99.90
2022-09-12T05:51:42.384Z,99.90
2022-09-12T05:54:13.192Z,99.90
2022-09-12T05:56:42.888Z,99.90
2022-09-12T05:59:14.059Z,99.90
2022-09-12T06:01:43.598Z,99.90
2022-09-12T06:04:12.235Z,99.90
2022-09-12T06:06:44.848Z,99.90
2022-09-12T06:09:14.348Z,99.90
2022-09-12T06:11:43.374Z,99.90
2022-09-12T06:14:13.414Z,99.90
2022-09-12T06:16:41.854Z,99.90
2022-09-12T06:19:17.027Z,99.90
2022-09-12T06:21:45.398Z,99.90
2022-09-12T06:24:13.451Z,99.90
2022-09-12T06:26:41.626Z,99.90
2022-09-12T06:29:11.441Z,99.90
2022-09-12T06:31:41.319Z,99.90
2022-09-12T06:34:12.490Z,99.90
2022-09-12T06:36:42.749Z,99.90
2022-09-12T06:39:13.209Z,99.90
2022-09-12T06:41:44.059Z,99.90
2022-09-12T06:44:14.359Z,99.90
2022-09-12T06:46:42.517Z,99.90
2022-09-12T06:49:12.094Z,99.90
2022-09-12T06:51:42.007Z,99.90
2022-09-12T06:54:12.906Z,99.90
2022-09-12T06:56:40.929Z,99.90
2022-09-12T06:59:09.060Z,99.90
2022-09-12T07:01:37.159Z,99.90
2022-09-12T07:04:06.430Z,99.90
2022-09-12T07:06:40.521Z,99.90
2022-09-12T07:09:11.980Z,99.90
2022-09-12T07:11:42.067Z,99.90
2022-09-12T07:14:12.948Z,99.90
2022-09-12T07:16:41.554Z,99.90
2022-09-12T07:19:10.536Z,99.90
2022-09-12T07:21:41.226Z,99.90
2022-09-12T07:24:11.116Z,99.90
2022-09-12T07:26:42.242Z,99.90
2022-09-12T07:29:35.909Z,99.90
2022-09-12T07:32:05.681Z,99.90
2022-09-12T07:34:33.972Z,99.90
2022-09-12T07:37:03.469Z,99.90
2022-09-12T07:39:32.455Z,99.90
2022-09-12T07:42:00.998Z,99.90
2022-09-12T07:44:29.447Z,99.90
2022-09-12T07:46:57.632Z,99.90
2022-09-12T07:49:25.918Z,99.90
2022-09-12T07:51:54.038Z,99.90
2022-09-12T07:54:23.799Z,99.90
2022-09-12T07:56:51.864Z,99.90
2022-09-12T07:59:35.677Z,99.90
2022-09-12T08:02:16.590Z,99.90
2022-09-12T08:04:45.476Z,99.90
2022-09-12T08:07:13.635Z,99.90
2022-09-12T08:09:43.100Z,99.90
2022-09-12T08:12:11.219Z,99.90
2022-09-12T08:14:41.225Z,99.90
2022-09-12T08:17:09.595Z,99.90
2022-09-12T08:19:38.817Z,99.90
2022-09-12T08:22:06.950Z,99.90
2022-09-12T08:24:35.062Z,99.60
2022-09-12T08:27:04.666Z,99.10
2022-09-12T08:29:32.788Z,99.10
2022-09-12T08:32:00.964Z,99.40
2022-09-12T08:34:29.036Z,98.40
2022-09-12T08:36:57.722Z,99.90
2022-09-12T08:39:26.014Z,99.00
2022-09-12T08:42:03.034Z,98.50
2022-09-12T08:44:55.765Z,98.00
2022-09-12T08:47:28.838Z,98.40
2022-09-12T08:50:11.761Z,99.60
2022-09-12T08:52:48.478Z,99.90
2022-09-12T08:55:26.872Z,99.80
2022-09-12T08:57:55.435Z,99.90
2022-09-12T09:00:26.525Z,99.50
2022-09-12T09:03:15.222Z,99.90
2022-09-12T09:05:51.389Z,99.40
2022-09-12T09:08:30.808Z,97.60
2022-09-12T09:11:05.641Z,99.50
2022-09-12T09:14:05.473Z,97.50
2022-09-12T09:16:37.493Z,97.60
2022-09-12T09:19:12.224Z,98.00
2022-09-12T09:21:46.230Z,99.20
2022-09-12T09:24:17.266Z,99.90
2022-09-12T09:26:51.780Z,97.40
2022-09-12T09:29:23.589Z,96.50
2022-09-12T09:31:55.940Z,98.40
2022-09-12T09:34:25.253Z,98.40
2022-09-12T09:37:01.588Z,98.20
2022-09-12T09:39:46.379Z,97.40
2022-09-12T09:42:28.917Z,98.90
2022-09-12T09:45:01.767Z,95.60
2022-09-12T09:47:31.209Z,95.50
2022-09-12T09:50:00.431Z,94.00
2022-09-12T09:52:32.709Z,93.90
2022-09-12T09:55:02.897Z,93.80
2022-09-12T09:57:42.657Z,92.80
2022-09-12T10:00:30.673Z,93.00
2022-09-12T10:03:27.038Z,93.80
2022-09-12T10:05:58.303Z,92.20
2022-09-12T10:08:28.799Z,92.20
2022-09-12T10:11:02.853Z,92.70
2022-09-12T10:13:40.605Z,91.90
2022-09-12T10:16:20.454Z,92.40
2022-09-12T10:18:51.099Z,90.70
2022-09-12T10:21:35.883Z,93.30
2022-09-12T10:24:21.368Z,91.90
2022-09-12T10:26:56.834Z,90.90
2022-09-12T10:29:29.549Z,94.50
2022-09-12T10:32:00.025Z,93.90
2022-09-12T10:34:33.542Z,93.80
2022-09-12T10:37:05.717Z,91.60
2022-09-12T10:39:36.213Z,93.60
2022-09-12T10:42:06.035Z,94.70
2022-09-12T10:44:35.793Z,90.90
2022-09-12T10:47:22.782Z,89.50
2022-09-12T10:49:52.263Z,86.10
2022-09-12T10:52:24.380Z,84.60
2022-09-12T10:54:52.818Z,86.80
2022-09-12T10:57:54.018Z,89.30
2022-09-12T11:00:27.832Z,87.50
2022-09-12T11:03:14.622Z,90.40
2022-09-12T11:05:54.428Z,91.10
2022-09-12T11:08:39.653Z,91.00
2022-09-12T11:11:33.370Z,90.20
2022-09-12T11:14:19.219Z,89.20
2022-09-12T11:16:56.177Z,90.60
2022-09-12T11:19:44.143Z,88.70
2022-09-12T11:22:31.735Z,90.50
2022-09-12T11:25:22.349Z,88.40
2022-09-12T11:28:22.502Z,91.00
2022-09-12T11:31:09.065Z,90.90
2022-09-12T11:33:43.386Z,90.00
2022-09-12T11:36:29.464Z,90.20
2022-09-12T11:39:15.717Z,92.40
2022-09-12T11:41:45.373Z,92.40
2022-09-12T11:44:17.384Z,93.40
2022-09-12T11:46:51.611Z,92.90
2022-09-12T11:49:28.833Z,92.40
2022-09-12T11:51:59.062Z,92.50
2022-09-12T11:54:30.678Z,93.50
2022-09-12T11:57:03.125Z,90.70
2022-09-12T11:59:36.250Z,91.10
2022-09-12T12:02:05.474Z,90.80
2022-09-12T12:04:41.095Z,91.60
2022-09-12T12:07:11.847Z,91.80
2022-09-12T12:09:47.482Z,91.70
2022-09-12T12:12:18.132Z,90.10
2022-09-12T12:14:47.224Z,89.00
2022-09-12T12:17:16.865Z,88.10
2022-09-12T12:19:46.003Z,89.50
2022-09-12T12:22:17.798Z,87.90
2022-09-12T12:25:04.141Z,88.30
2022-09-12T12:27:49.168Z,91.00
2022-09-12T12:30:35.627Z,93.30
2022-09-12T12:33:03.971Z,91.00
2022-09-12T12:35:39.628Z,90.00
2022-09-12T12:38:27.919Z,87.80
2022-09-12T12:41:17.157Z,90.40
2022-09-12T12:43:47.092Z,88.50
2022-09-12T12:46:15.847Z,92.10
2022-09-12T12:48:54.455Z,89.10
2022-09-12T12:51:39.861Z,91.10
2022-09-12T12:54:28.247Z,91.50
2022-09-12T12:57:03.633Z,91.50
2022-09-12T12:59:33.435Z,92.70
2022-09-12T13:02:01.950Z,90.70
2022-09-12T13:04:32.446Z,89.90
2022-09-12T13:07:07.898Z,90.00
2022-09-12T13:09:38.846Z,88.90
2022-09-12T13:12:08.080Z,89.50
2022-09-12T13:14:51.434Z,92.30
2022-09-12T13:17:37.307Z,93.90
2022-09-12T13:20:27.952Z,93.70
2022-09-12T13:22:56.803Z,91.80
2022-09-12T13:25:26.616Z,90.90
2022-09-12T13:28:01.531Z,92.40
2022-09-12T13:30:31.790Z,90.70
2022-09-12T13:33:06.412Z,89.70
2022-09-12T13:35:48.964Z,90.80
2022-09-12T13:38:21.591Z,89.20
2022-09-12T13:40:57.317Z,90.30
2022-09-12T13:43:30.427Z,90.20
2022-09-12T13:45:59.814Z,91.70
2022-09-12T13:48:27.767Z,88.90
2022-09-12T13:50:57.803Z,87.70
2022-09-12T13:53:27.007Z,86.80
2022-09-12T13:55:55.880Z,89.30
2022-09-12T13:58:26.713Z,88.10
2022-09-12T14:01:07.813Z,87.50
2022-09-12T14:03:58.938Z,90.50
2022-09-12T14:06:32.268Z,87.70
2022-09-12T14:09:02.600Z,90.40
2022-09-12T14:11:33.961Z,88.00
2022-09-12T14:14:05.227Z,90.10
2022-09-12T14:16:39.377Z,84.60
2022-09-12T14:19:07.394Z,86.20
2022-09-12T14:21:36.590Z,84.00
2022-09-12T14:24:08.573Z,86.70
2022-09-12T14:26:40.449Z,86.20
2022-09-12T14:29:10.131Z,83.90
2022-09-12T14:31:41.305Z,82.70
2022-09-12T14:34:17.421Z,84.90
2022-09-12T14:36:48.893Z,86.90
2022-09-12T14:39:23.048Z,85.10
2022-09-12T14:41:52.708Z,87.40
2022-09-12T14:44:25.322Z,90.00
2022-09-12T14:46:55.058Z,88.90
2022-09-12T14:49:28.886Z,86.70
2022-09-12T14:52:00.897Z,90.30
2022-09-12T14:54:40.261Z,86.00
2022-09-12T14:57:32.169Z,85.30
2022-09-12T15:00:20.780Z,88.40
2022-09-12T15:02:50.671Z,90.40
2022-09-12T15:05:20.267Z,87.10
2022-09-12T15:07:53.888Z,84.70
2022-09-12T15:10:24.123Z,85.90
2022-09-12T15:12:52.532Z,88.90
2022-09-12T15:15:21.992Z,88.60
2022-09-12T15:17:51.375Z,88.70
2022-09-12T15:20:19.357Z,88.00
2022-09-12T15:22:47.229Z,89.00
2022-09-12T15:25:15.068Z,89.00
2022-09-12T15:27:43.336Z,87.80
2022-09-12T15:30:13.164Z,86.70
2022-09-12T15:32:43.160Z,86.70
2022-09-12T15:35:14.979Z,88.20
2022-09-12T15:37:43.503Z,89.90
2022-09-12T15:40:13.224Z,90.30
2022-09-12T15:42:42.338Z,90.00
2022-09-12T15:45:19.536Z,88.70
2022-09-12T15:47:48.325Z,91.60
2022-09-12T15:50:18.037Z,89.20
2022-09-12T15:52:46.812Z,90.40
2022-09-12T15:55:19.421Z,90.50
2022-09-12T15:57:47.811Z,90.30
2022-09-12T16:00:17.744Z,91.50
2022-09-12T16:02:46.437Z,91.00
2022-09-12T16:05:18.122Z,90.90
2022-09-12T16:07:46.228Z,90.30
2022-09-12T16:10:18.766Z,91.80
2022-09-12T16:12:46.966Z,91.10
2022-09-12T16:15:17.442Z,91.20
2022-09-12T16:17:45.596Z,91.10
2022-09-12T16:20:14.412Z,90.20
2022-09-12T16:22:44.538Z,91.20
2022-09-12T16:25:12.581Z,89.20
2022-09-12T16:27:41.155Z,91.20
2022-09-12T16:30:10.530Z,90.10
2022-09-12T16:32:38.551Z,91.40
2022-09-12T16:35:07.687Z,92.00
2022-09-12T16:37:35.803Z,91.00
2022-09-12T16:40:07.094Z,90.20
2022-09-12T16:42:35.745Z,90.10
2022-09-12T16:45:04.295Z,91.00
2022-09-12T16:47:33.579Z,92.20
2022-09-12T16:50:01.570Z,92.20
2022-09-12T16:52:31.269Z,91.30
2022-09-12T16:54:59.296Z,90.90
2022-09-12T16:57:28.699Z,91.40
2022-09-12T16:59:56.678Z,91.40
2022-09-12T17:02:24.833Z,90.80
2022-09-12T17:04:53.581Z,91.10
2022-09-12T17:07:21.585Z,91.60
2022-09-12T17:09:51.051Z,91.10
2022-09-12T17:12:19.129Z,91.40
2022-09-12T17:14:48.437Z,91.20
2022-09-12T17:17:16.413Z,91.90
2022-09-12T17:19:44.469Z,91.30
2022-09-12T17:22:12.535Z,91.10
2022-09-12T17:24:40.569Z,91.80
2022-09-12T17:27:08.866Z,92.30
2022-09-12T17:29:37.163Z,91.50
2022-09-12T17:32:06.717Z,92.10
2022-09-12T17:34:34.849Z,92.40
2022-09-12T17:37:02.852Z,92.40
2022-09-12T17:39:31.052Z,91.60
2022-09-12T17:42:00.143Z,92.20
2022-09-12T17:44:30.147Z,92.40
2022-09-12T17:46:58.207Z,92.20
2022-09-12T17:49:28.285Z,92.40
2022-09-12T17:51:56.626Z,92.50
2022-09-12T17:54:24.765Z,92.90
2022-09-12T17:56:52.940Z,93.10
2022-09-12T17:59:24.511Z,92.80
2022-09-12T18:02:10.163Z,93.10
2022-09-12T18:04:40.701Z,93.30
2022-09-12T18:07:09.145Z,93.20
2022-09-12T18:09:39.120Z,93.00
2022-09-12T18:12:07.895Z,92.90
2022-09-12T18:14:37.669Z,92.90
2022-09-12T18:17:07.169Z,93.10
2022-09-12T18:19:38.681Z,93.30
2022-09-12T18:22:09.483Z,93.50
2022-09-12T18:24:37.706Z,93.40
2022-09-12T18:27:06.015Z,93.00
2022-09-12T18:29:35.010Z,93.50
2022-09-12T18:32:04.083Z,93.60
2022-09-12T18:34:32.602Z,93.30
2022-09-12T18:37:04.387Z,93.80
2022-09-12T18:39:34.381Z,93.50
2022-09-12T18:42:03.088Z,93.50
2022-09-12T18:44:31.703Z,93.50
2022-09-12T18:47:00.205Z,93.50
2022-09-12T18:49:28.897Z,93.50
2022-09-12T18:51:57.179Z,93.90
2022-09-12T18:54:25.387Z,93.90
2022-09-12T18:56:55.027Z,93.70
2022-09-12T18:59:24.161Z,93.50
2022-09-12T19:01:52.528Z,93.50
2022-09-12T19:04:21.085Z,93.80
2022-09-12T19:06:50.560Z,93.50
2022-09-12T19:09:20.685Z,93.50
2022-09-12T19:11:53.022Z,93.50
2022-09-12T19:14:24.928Z,93.40
2022-09-12T19:16:53.101Z,93.50
2022-09-12T19:19:21.405Z,93.20
2022-09-12T19:21:49.655Z,93.20
2022-09-12T19:24:17.878Z,93.30
2022-09-12T19:26:46.723Z,93.30
2022-09-12T19:29:16.736Z,93.30
2022-09-12T19:31:46.648Z,93.20
2022-09-12T19:34:15.426Z,93.30
2022-09-12T19:36:46.215Z,93.30
2022-09-12T19:39:15.051Z,93.50
2022-09-12T19:41:43.706Z,93.30
2022-09-12T19:44:12.159Z,93.30
2022-09-12T19:46:40.873Z,93.10
2022-09-12T19:49:11.444Z,93.30
2022-09-12T19:51:39.829Z,93.40
2022-09-12T19:54:08.261Z,93.20
2022-09-12T19:56:36.661Z,93.40
2022-09-12T19:59:05.132Z,93.30
2022-09-12T20:01:37.076Z,93.20
2022-09-12T20:04:07.143Z,93.10
2022-09-12T20:06:36.907Z,93.20
2022-09-12T20:09:06.561Z,93.40
2022-09-12T20:11:35.470Z,93.40
2022-09-12T20:14:04.302Z,93.40
2022-09-12T20:16:33.841Z,93.40
2022-09-12T20:19:04.234Z,93.70
2022-09-12T20:21:36.234Z,93.40
2022-09-12T20:24:08.202Z,93.40
2022-09-12T20:26:36.748Z,93.50
2022-09-12T20:29:05.920Z,93.60
2022-09-12T20:31:35.004Z,94.30
2022-09-12T20:34:03.266Z,94.30
2022-09-12T20:36:31.599Z,94.50
2022-09-12T20:39:01.331Z,94.70
2022-09-12T20:41:31.683Z,95.20
2022-09-12T20:43:59.730Z,95.90
2022-09-12T20:46:28.855Z,96.40
2022-09-12T20:48:56.899Z,96.30
2022-09-12T20:51:26.610Z,96.30
2022-09-12T20:53:55.113Z,96.90
2022-09-12T20:56:23.075Z,97.20
2022-09-12T20:58:52.409Z,97.50
2022-09-12T21:01:20.726Z,97.60
2022-09-12T21:03:48.808Z,97.20
2022-09-12T21:06:17.787Z,98.30
2022-09-12T21:08:45.959Z,98.40
2022-09-12T21:11:14.351Z,99.90
2022-09-12T21:13:42.505Z,99.90
2022-09-12T21:16:13.633Z,99.90
2022-09-12T21:18:42.443Z,99.90
2022-09-12T21:21:10.855Z,99.90
2022-09-12T21:23:39.103Z,99.90
2022-09-12T21:26:07.995Z,99.90
2022-09-12T21:28:36.589Z,99.90
2022-09-12T21:31:05.112Z,99.90
2022-09-12T21:33:34.707Z,99.90
2022-09-12T21:36:04.037Z,99.90
2022-09-12T21:38:32.527Z,99.90
2022-09-12T21:41:08.113Z,99.90
2022-09-12T21:43:36.869Z,99.90
2022-09-12T21:46:06.192Z,99.90
2022-09-12T21:48:35.777Z,99.90
2022-09-12T21:51:04.532Z,99.90
2022-09-12T21:53:33.114Z,99.90
2022-09-12T21:56:06.101Z,99.90
2022-09-12T21:58:34.170Z,99.90
2022-09-12T22:01:02.682Z,99.90
2022-09-12T22:03:31.100Z,99.90
2022-09-12T22:06:02.729Z,99.90
2022-09-12T22:08:32.806Z,99.90
2022-09-12T22:11:02.248Z,99.90
2022-09-12T22:13:32.493Z,99.90
2022-09-12T22:16:03.508Z,99.90
2022-09-12T22:18:33.599Z,99.90
2022-09-12T22:21:05.652Z,99.90
2022-09-12T22:23:51.269Z,99.90
2022-09-12T22:26:19.527Z,99.90
2022-09-12T22:28:48.284Z,99.90
2022-09-12T22:31:17.404Z,99.90
2022-09-12T22:33:45.690Z,99.90
2022-09-12T22:36:14.876Z,99.90
2022-09-12T22:38:42.751Z,99.90
2022-09-12T22:41:11.864Z,99.90
2022-09-12T22:43:39.804Z,99.90
2022-09-12T22:46:08.141Z,99.90
2022-09-12T22:48:36.448Z,99.90
2022-09-12T22:51:04.428Z,99.90
2022-09-12T22:53:34.293Z,99.90
2022-09-12T22:56:02.419Z,99.90
2022-09-12T22:58:30.658Z,99.90
2022-09-12T23:00:58.728Z,99.90
2022-09-12T23:03:26.849Z,99.90
2022-09-12T23:05:54.785Z,99.90
2022-09-12T23:08:22.677Z,99.90
2022-09-12T23:10:52.004Z,99.90
2022-09-12T23:13:20.002Z,99.90
2022-09-12T23:15:47.958Z,99.90
2022-09-12T23:18:16.130Z,99.90
2022-09-12T23:20:44.089Z,99.90
2022-09-12T23:23:12.152Z,99.90
2022-09-12T23:25:40.131Z,99.90
2022-09-12T23:28:09.522Z,99.90
2022-09-12T23:30:38.022Z,99.90
2022-09-12T23:33:05.917Z,99.90
2022-09-12T23:35:33.869Z,99.90
2022-09-12T23:38:01.747Z,99.90
2022-09-12T23:40:29.725Z,99.90
2022-09-12T23:42:57.684Z,99.90
2022-09-12T23:45:27.013Z,99.90
2022-09-12T23:47:54.958Z,99.90
2022-09-12T23:50:23.762Z,99.90
2022-09-12T23:52:51.651Z,99.90
2022-09-12T23:55:19.475Z,99.90
2022-09-12T23:57:47.440Z,99.90
